Time;durP1;ratioP1;P1;durP2;ratioP2;P2;SDS_P1;SDS_P2;PMS_P1;PMS_P2;Temp;Humidity;BMP_temperature;BMP_pressure;BME280_temperature;BME280_humidity;BME280_pressure;Samples;Min_cycle;Max_cycle;Signal;HPM_P1;HPM_P2
2022/03/17 00:00:49;;;;;;;23.95;10.80;;;11.70;99.90;;;11.73;67.43;101483.34;5165053;28;20058;-71
2022/03/17 00:03:21;;;;;;;19.75;10.13;;;11.80;99.90;;;11.73;67.54;101477.25;5165319;28;20055;-71
2022/03/17 00:05:53;;;;;;;23.42;11.48;;;11.70;99.90;;;11.69;67.61;101484.97;5165293;28;20054;-71
2022/03/17 00:08:25;;;;;;;24.50;11.23;;;11.70;99.90;;;11.65;67.84;101471.72;5164760;28;20058;-73
2022/03/17 00:10:57;;;;;;;25.45;10.93;;;11.70;99.90;;;11.63;67.88;101479.50;5165113;28;20520;-72
2022/03/17 00:13:29;;;;;;;25.52;11.07;;;11.70;99.90;;;11.62;67.99;101474.22;5164877;28;20061;-71
2022/03/17 00:16:02;;;;;;;27.02;11.07;;;11.70;99.90;;;11.65;67.75;101485.66;5164417;28;20065;-71
2022/03/17 00:18:34;;;;;;;21.95;10.00;;;11.70;99.90;;;11.65;67.74;101475.22;5164268;28;20495;-71
2022/03/17 00:21:06;;;;;;;20.25;9.55;;;11.70;99.90;;;11.64;67.66;101481.28;5160334;28;20046;-71
2022/03/17 00:23:38;;;;;;;26.20;11.60;;;11.70;99.90;;;11.65;67.65;101480.44;5164419;28;20065;-72
2022/03/17 00:26:10;;;;;;;24.67;11.52;;;11.70;99.90;;;11.63;67.72;101487.31;5164850;28;20507;-71
2022/03/17 00:28:42;;;;;;;25.20;11.30;;;11.70;99.90;;;11.64;67.73;101489.09;5164277;28;20061;-71
2022/03/17 00:31:17;;;;;;;27.48;11.50;;;11.70;99.90;;;11.62;67.56;101487.25;5164883;28;20046;-71
2022/03/17 00:33:49;;;;;;;22.83;10.82;;;11.70;99.90;;;11.61;67.68;101491.59;5166271;28;20085;-70
2022/03/17 00:36:21;;;;;;;23.27;10.80;;;11.60;99.90;;;11.60;67.73;101500.22;5165732;28;20046;-71
2022/03/17 00:38:53;;;;;;;23.15;11.10;;;11.70;99.90;;;11.65;67.57;101493.50;5165677;28;20054;-72
2022/03/17 00:41:25;;;;;;;24.88;11.75;;;11.70;99.90;;;11.66;67.48;101487.44;5165718;28;20050;-70
2022/03/17 00:43:57;;;;;;;23.98;11.48;;;11.70;99.90;;;11.59;67.62;101488.00;5165779;28;20057;-70
2022/03/17 00:46:30;;;;;;;24.25;11.38;;;11.60;99.90;;;11.66;67.60;101487.44;5166505;28;20046;-70
2022/03/17 00:49:03;;;;;;;26.15;11.27;;;11.60;99.90;;;11.64;67.31;101494.31;5166211;28;20047;-71
2022/03/17 00:51:35;;;;;;;24.10;10.95;;;11.70;99.90;;;11.59;67.36;101501.06;5165581;28;20126;-71
2022/03/17 00:54:07;;;;;;;21.30;10.35;;;11.70;99.90;;;11.59;67.28;101503.69;5166313;28;20368;-71
2022/03/17 00:56:39;;;;;;;26.45;11.80;;;11.60;99.90;;;11.56;67.57;101502.69;5166337;28;20054;-70
2022/03/17 00:59:12;;;;;;;23.35;11.63;;;11.60;99.90;;;11.53;67.44;101500.81;5165696;28;20050;-70
2022/03/17 01:01:45;;;;;;;24.42;12.05;;;11.60;99.90;;;11.54;67.78;101501.69;5165851;28;20419;-71
2022/03/17 01:04:17;;;;;;;22.67;11.65;;;11.60;99.90;;;11.48;67.58;101499.75;5165549;28;20407;-71
2022/03/17 01:06:49;;;;;;;24.48;11.35;;;11.60;99.90;;;11.50;67.80;101503.31;5165655;28;20050;-71
2022/03/17 01:09:21;;;;;;;26.67;11.00;;;11.50;99.90;;;11.47;67.78;101504.88;5165598;28;20056;-71
2022/03/17 01:11:53;;;;;;;25.27;10.05;;;11.50;99.90;;;11.47;67.78;101508.38;5165648;28;20049;-70
2022/03/17 01:14:25;;;;;;;22.98;11.57;;;11.60;99.90;;;11.46;67.83;101501.38;5165509;28;20058;-70
2022/03/17 01:16:59;;;;;;;24.90;11.18;;;11.50;99.90;;;11.45;67.98;101502.22;5165436;28;20050;-70
2022/03/17 01:19:31;;;;;;;23.85;10.57;;;11.50;99.90;;;11.47;67.88;101500.56;5165731;28;20339;-70
2022/03/17 01:22:03;;;;;;;22.90;10.25;;;11.50;99.90;;;11.45;67.92;101499.59;5165488;28;20056;-70
2022/03/17 01:24:35;;;;;;;24.50;11.73;;;11.50;99.90;;;11.44;67.94;101508.25;5165737;28;20060;-71
2022/03/17 01:27:07;;;;;;;24.67;11.95;;;11.50;99.90;;;11.43;67.93;101509.09;5165047;28;20219;-71
2022/03/17 01:29:40;;;;;;;21.25;10.25;;;11.50;99.90;;;11.39;68.02;101494.13;5164914;28;20053;-71
2022/03/17 01:32:14;;;;;;;26.23;10.77;;;11.50;99.90;;;11.41;68.17;101500.31;5165980;28;20125;-71
2022/03/17 01:34:46;;;;;;;26.17;11.10;;;11.50;99.90;;;11.41;68.09;101492.50;5165359;28;20062;-71
2022/03/17 01:37:18;;;;;;;28.92;12.55;;;11.50;99.90;;;11.40;67.95;101495.91;5164361;28;20410;-70
2022/03/17 01:39:50;;;;;;;26.67;11.30;;;11.50;99.90;;;11.38;68.29;101489.72;5165338;28;20050;-70
2022/03/17 01:42:23;;;;;;;23.65;11.40;;;11.50;99.90;;;11.37;68.18;101491.44;5165906;28;20402;-70
2022/03/17 01:44:55;;;;;;;28.08;12.20;;;11.40;99.90;;;11.37;68.25;101490.56;5165081;28;20426;-72
2022/03/17 01:47:29;;;;;;;23.10;12.13;;;11.50;99.90;;;11.36;68.17;101488.78;5166525;28;20422;-71
2022/03/17 01:50:05;;;;;;;26.60;11.90;;;11.50;99.90;;;11.39;68.14;101484.56;5167001;28;21388;-70
2022/03/17 01:52:39;;;;;;;24.33;11.60;;;11.40;99.90;;;11.38;68.45;101488.00;5169442;28;20495;-71
2022/03/17 01:55:13;;;;;;;26.85;11.77;;;11.40;99.90;;;11.44;67.88;101482.16;5169756;28;20050;-71
2022/03/17 01:57:46;;;;;;;28.45;11.93;;;11.50;99.90;;;11.42;68.28;101494.28;5169021;28;20069;-71
2022/03/17 02:00:21;;;;;;;25.92;11.88;;;11.50;99.90;;;11.34;68.35;101482.59;5168852;28;20047;-71
2022/03/17 02:02:54;;;;;;;25.70;12.05;;;11.50;99.90;;;11.34;68.25;101480.84;5169121;28;20451;-70
2022/03/17 02:05:26;;;;;;;23.52;11.52;;;11.40;99.90;;;11.37;68.34;101491.44;5169179;28;20050;-70
2022/03/17 02:07:58;;;;;;;27.20;11.98;;;11.40;99.90;;;11.41;67.96;101495.09;5168961;28;20415;-70
2022/03/17 02:13:08;;;;;;;28.67;12.00;;;11.40;99.90;;;11.38;68.04;101487.13;5169199;28;20073;-71
2022/03/17 02:13:22;;;;;;;25.65;12.05;;;11.40;99.90;;;11.39;68.03;101488.91;5168847;28;20054;-70
2022/03/17 02:15:56;;;;;;;25.60;12.63;;;11.50;99.90;;;11.37;68.06;101481.00;5168994;28;20078;-70
2022/03/17 02:18:29;;;;;;;24.35;11.93;;;11.40;99.90;;;11.41;67.92;101487.25;5168816;28;20415;-70
2022/03/17 02:21:01;;;;;;;24.60;12.20;;;11.40;99.90;;;11.40;68.01;101490.69;5168983;28;20508;-70
2022/03/17 02:26:25;;;;;;;26.08;11.93;;;11.40;99.90;;;11.41;68.02;101487.25;5169348;28;20484;-71
2022/03/17 02:28:58;;;;;;;26.55;11.50;;;11.40;99.90;;;11.38;67.95;101481.91;5168445;28;20522;-71
2022/03/17 02:31:31;;;;;;;26.90;11.68;;;11.40;99.90;;;11.41;68.05;101493.38;5168437;28;20054;-71
2022/03/17 02:34:03;;;;;;;26.30;11.93;;;11.40;99.90;;;11.37;68.26;101490.56;5168378;28;20411;-70
2022/03/17 02:36:35;;;;;;;27.58;13.10;;;11.40;99.90;;;11.38;68.20;101487.13;5168979;28;20050;-71
2022/03/17 02:39:09;;;;;;;28.55;12.43;;;11.40;99.90;;;11.35;68.22;101485.28;5168689;28;20476;-71
2022/03/17 02:41:41;;;;;;;24.40;11.23;;;11.40;99.90;;;11.36;68.11;101483.56;5168324;28;20050;-70
2022/03/17 02:44:13;;;;;;;26.80;11.77;;;11.40;99.90;;;11.40;68.04;101488.06;5168544;28;20057;-70
2022/03/17 02:46:45;;;;;;;27.23;12.07;;;11.40;99.90;;;11.45;68.08;101486.56;5168612;28;20042;-71
2022/03/17 02:49:18;;;;;;;27.15;12.23;;;11.40;99.90;;;11.45;67.96;101486.56;5168686;28;20050;-70
2022/03/17 02:51:50;;;;;;;27.85;11.88;;;11.40;99.90;;;11.46;67.94;101482.22;5168663;28;20050;-71
2022/03/17 02:54:23;;;;;;;25.73;12.30;;;11.40;99.90;;;11.45;68.16;101483.06;5168576;28;20056;-70
2022/03/17 02:56:55;;;;;;;25.58;12.20;;;11.40;99.90;;;11.43;68.00;101479.50;5168729;28;20061;-71
2022/03/17 02:59:27;;;;;;;28.10;12.45;;;11.40;99.90;;;11.43;68.00;101495.16;5168087;28;20054;-70
2022/03/17 03:02:01;;;;;;;29.17;12.90;;;11.40;99.90;;;11.38;68.23;101494.94;5168581;28;20058;-69
2022/03/17 03:04:33;;;;;;;28.38;11.98;;;11.40;99.90;;;11.37;68.36;101491.44;5168765;28;20065;-71
2022/03/17 03:07:06;;;;;;;25.92;12.05;;;11.40;99.90;;;11.37;68.21;101498.41;5167574;28;20057;-70
2022/03/17 03:09:39;;;;;;;29.67;13.25;;;11.40;99.90;;;11.38;68.40;101508.00;5168301;28;20054;-70
2022/03/17 03:12:11;;;;;;;26.80;11.70;;;11.40;99.90;;;11.39;68.43;101513.28;5168230;28;20509;-70
2022/03/17 03:14:43;;;;;;;28.25;12.82;;;11.40;99.90;;;11.43;68.23;101514.31;5167969;28;20050;-70
2022/03/17 03:17:15;;;;;;;30.08;13.40;;;11.40;99.90;;;11.42;68.52;101515.16;5167306;28;20513;-70
2022/03/17 03:19:48;;;;;;;29.58;12.63;;;11.40;99.90;;;11.43;68.36;101513.44;5167580;28;20072;-71
2022/03/17 03:22:20;;;;;;;29.92;13.05;;;11.40;99.90;;;11.42;68.35;101507.31;5167587;28;20135;-71
2022/03/17 03:24:53;;;;;;;28.50;12.63;;;11.40;99.90;;;11.40;68.40;101511.56;5167881;28;20050;-70
2022/03/17 03:27:27;;;;;;;35.10;13.18;;;11.40;99.90;;;11.42;68.40;101507.31;5167548;28;20046;-70
2022/03/17 03:30:00;;;;;;;29.25;13.73;;;11.40;99.90;;;11.42;68.34;101515.16;5167607;28;20064;-70
2022/03/17 03:32:31;;;;;;;28.50;12.65;;;11.40;99.90;;;11.40;68.44;101515.06;5167679;28;20488;-70
2022/03/17 03:37:22;;;;;;;25.83;12.55;;;11.40;99.90;;;11.40;68.50;101511.56;5167260;28;20054;-70
2022/03/17 03:37:56;;;;;;;27.55;13.00;;;11.40;99.90;;;11.39;68.58;101510.66;5167081;28;20070;-71
2022/03/17 03:40:29;;;;;;;29.67;12.00;;;11.40;99.90;;;11.43;68.50;101522.16;5167178;28;20050;-71
2022/03/17 03:43:01;;;;;;;23.77;12.02;;;11.40;99.90;;;11.46;68.60;101526.59;5167393;28;20145;-71
2022/03/17 03:45:34;;;;;;;27.17;13.00;;;11.40;99.90;;;11.45;68.71;101515.28;5167385;28;20506;-71
2022/03/17 03:48:06;;;;;;;24.70;11.82;;;11.40;99.90;;;11.46;69.00;101531.81;5167248;28;20053;-71
2022/03/17 03:50:38;;;;;;;28.38;12.27;;;11.40;99.90;;;11.48;69.08;101538.91;5167702;28;20054;-71
2022/03/17 03:53:10;;;;;;;28.00;12.75;;;11.40;99.90;;;11.49;69.44;101542.41;5167667;28;20046;-70
2022/03/17 03:55:43;;;;;;;30.13;13.05;;;11.40;99.90;;;11.48;69.71;101549.34;5167125;28;20077;-70
2022/03/17 03:58:15;;;;;;;29.70;13.88;;;11.40;99.90;;;11.50;69.71;101550.31;5166987;28;20060;-70
2022/03/17 04:00:47;;;;;;;29.08;12.65;;;11.40;99.90;;;11.50;70.00;101557.25;5166618;28;20104;-70
2022/03/17 04:03:19;;;;;;;31.83;15.20;;;11.40;99.90;;;11.49;70.72;101551.13;5166855;28;20515;-71
2022/03/17 04:05:51;;;;;;;31.70;13.52;;;11.40;99.90;;;11.51;71.10;101562.53;5166643;28;20054;-71
2022/03/17 04:08:23;;;;;;;28.63;13.50;;;11.40;99.90;;;11.47;72.14;101560.59;5166670;28;20054;-71
2022/03/17 04:10:56;;;;;;;29.90;13.18;;;11.40;99.90;;;11.45;72.24;101564.88;5166082;28;20057;-71
2022/03/17 04:13:28;;;;;;;24.35;11.57;;;11.40;99.90;;;11.44;72.53;101572.66;5166559;28;20054;-70
2022/03/17 04:16:00;;;;;;;30.35;13.52;;;11.40;99.90;;;11.41;72.82;101574.31;5166115;28;20050;-71
2022/03/17 04:18:32;;;;;;;29.73;13.02;;;11.40;99.90;;;11.44;73.27;101585.69;5165498;28;20411;-70
2022/03/17 04:21:04;;;;;;;35.53;17.60;;;11.30;99.90;;;11.42;73.79;101590.88;5166564;28;20271;-71
2022/03/17 04:23:36;;;;;;;28.58;12.63;;;11.40;99.90;;;11.38;74.74;101592.44;5166372;28;20050;-69
2022/03/17 04:26:09;;;;;;;29.92;14.05;;;11.30;99.90;;;11.36;75.00;101593.19;5165710;28;20156;-71
2022/03/17 04:28:41;;;;;;;31.35;14.77;;;11.30;99.90;;;11.35;75.26;101591.41;5166059;28;20053;-71
2022/03/17 04:31:13;;;;;;;32.72;14.32;;;11.30;99.90;;;11.37;75.48;101605.41;5166094;28;20053;-70
2022/03/17 04:33:45;;;;;;;30.23;14.07;;;11.30;99.90;;;11.35;75.90;101604.47;5166196;28;20058;-69
2022/03/17 04:36:18;;;;;;;31.13;13.77;;;11.30;99.90;;;11.33;76.51;101601.75;5165740;28;20076;-70
2022/03/17 04:38:51;;;;;;;34.90;16.45;;;11.30;99.90;;;11.31;76.64;101605.16;5165526;28;20056;-70
2022/03/17 04:41:24;;;;;;;38.03;16.52;;;11.20;99.90;;;11.29;76.91;101612.91;5165624;28;20050;-71
2022/03/17 04:43:56;;;;;;;36.47;16.95;;;11.20;99.90;;;11.27;77.36;101613.66;5166007;28;20046;-71
2022/03/17 04:46:28;;;;;;;30.95;14.57;;;11.20;99.90;;;11.23;77.70;101619.59;5165424;28;20061;-69
2022/03/17 04:49:00;;;;;;;36.30;17.23;;;11.10;99.90;;;11.21;78.03;101626.41;5165653;28;20141;-70
2022/03/17 04:51:32;;;;;;;35.05;15.65;;;11.10;99.90;;;11.17;78.45;101628.03;5166621;28;20050;-71
2022/03/17 04:54:06;;;;;;;41.50;17.73;;;11.10;99.90;;;11.12;78.88;101639.97;5166766;28;20072;-70
2022/03/17 04:56:39;;;;;;;36.17;16.88;;;11.10;99.90;;;11.11;79.28;101640.78;5166283;28;20077;-70
2022/03/17 04:59:11;;;;;;;38.42;17.45;;;11.10;99.90;;;11.10;79.57;101641.63;5167182;28;20060;-72
2022/03/17 05:01:43;;;;;;;53.42;21.83;;;11.00;99.90;;;11.08;79.79;101646.78;5166878;28;20054;-71
2022/03/17 05:04:15;;;;;;;39.83;16.92;;;11.10;99.90;;;11.11;79.63;101654.72;5166838;28;20050;-71
2022/03/17 05:06:47;;;;;;;33.75;16.55;;;11.00;99.90;;;11.09;80.33;101659.00;5167029;28;20050;-70
2022/03/17 05:09:19;;;;;;;34.08;15.88;;;11.00;99.90;;;11.10;80.57;101665.09;5166384;28;20524;-71
2022/03/17 05:11:53;;;;;;;37.88;16.20;;;11.00;99.90;;;11.10;81.01;101668.59;5166969;28;20046;-71
2022/03/17 05:14:25;;;;;;;37.17;16.75;;;11.00;99.90;;;11.07;81.42;101670.16;5166687;28;20575;-71
2022/03/17 05:16:57;;;;;;;37.70;16.25;;;11.00;99.90;;;11.07;81.65;101685.81;5189297;23;20050;-84
2022/03/17 05:19:29;;;;;;;35.05;14.48;;;11.00;99.90;;;11.09;81.91;101681.59;5188399;23;20054;-72
2022/03/17 05:22:02;;;;;;;35.63;15.38;;;11.00;99.90;;;11.10;82.35;101683.38;5184679;28;20050;-73
2022/03/17 05:24:34;;;;;;;37.58;16.00;;;11.00;99.90;;;11.11;82.43;101690.38;5188502;28;20065;-71
2022/03/17 05:27:07;;;;;;;37.20;16.40;;;11.00;99.90;;;11.11;83.09;101696.47;5156140;28;20054;-71
2022/03/17 05:29:39;;;;;;;35.15;15.00;;;11.00;99.90;;;11.11;83.78;101696.47;5168104;28;20050;-71
2022/03/17 05:32:11;;;;;;;42.60;16.95;;;11.00;99.90;;;11.12;83.99;101708.69;5168171;28;20046;-71
2022/03/17 05:34:43;;;;;;;41.33;16.63;;;11.00;99.90;;;11.12;84.37;101715.63;5168103;28;20058;-71
2022/03/17 05:37:15;;;;;;;40.30;15.45;;;11.00;99.90;;;11.10;84.72;101714.69;5168037;28;20468;-72
2022/03/17 05:39:47;;;;;;;37.92;16.02;;;11.00;99.90;;;11.08;85.29;101727.66;5167859;28;20049;-70
2022/03/17 05:42:21;;;;;;;45.10;18.50;;;11.00;99.90;;;11.06;86.28;101726.66;5167985;28;20046;-71
2022/03/17 05:44:53;;;;;;;42.78;16.33;;;11.00;99.90;;;11.05;86.64;101726.59;5166499;28;20054;-71
2022/03/17 05:47:25;;;;;;;41.35;16.83;;;11.00;99.90;;;11.02;87.42;101735.19;5156410;28;20428;-70
2022/03/17 05:49:56;;;;;;;42.38;17.80;;;11.00;99.90;;;10.98;87.89;101734.97;5147843;28;20121;-71
2022/03/17 05:52:29;;;;;;;42.00;17.60;;;10.90;99.90;;;10.98;87.80;101741.06;5147819;28;20043;-71
2022/03/17 05:55:01;;;;;;;42.42;18.15;;;10.90;99.90;;;10.99;88.04;101752.41;5147623;28;20057;-72
2022/03/17 05:57:35;;;;;;;42.55;17.98;;;10.90;99.90;;;10.99;88.23;101755.00;5148015;28;20050;-71
2022/03/17 06:00:11;;;;;;;43.72;17.60;;;10.90;99.90;;;10.99;88.65;101763.72;5147997;28;20411;-71
2022/03/17 06:02:43;;;;;;;39.17;17.15;;;10.90;99.90;;;11.00;88.50;101765.50;5147178;28;20053;-71
2022/03/17 06:05:15;;;;;;;42.72;17.67;;;10.90;99.90;;;10.98;88.82;101769.78;5147873;28;20053;-71
2022/03/17 06:07:50;;;;;;;41.78;18.13;;;10.90;99.90;;;10.97;89.40;101778.44;5147394;28;20404;-73
2022/03/17 06:10:24;;;;;;;39.30;17.60;;;10.90;99.90;;;10.98;89.74;101793.25;5147146;28;20061;-72
2022/03/17 06:12:58;;;;;;;39.50;16.92;;;10.90;99.90;;;10.97;90.12;101796.69;5147386;28;20053;-72
2022/03/17 06:15:31;;;;;;;43.00;17.05;;;10.90;99.90;;;10.97;90.86;101801.00;5147215;28;20138;-71
2022/03/17 06:18:06;;;;;;;35.28;13.10;;;10.90;99.90;;;10.96;91.34;101801.84;5147207;28;20073;-71
2022/03/17 06:20:39;;;;;;;41.60;15.68;;;10.80;99.90;;;10.98;91.21;101819.34;5146947;28;20514;-72
2022/03/17 06:23:11;;;;;;;46.25;17.25;;;10.90;99.90;;;11.00;91.36;101820.31;5147122;28;20061;-72
2022/03/17 06:25:42;;;;;;;41.33;15.55;;;10.90;99.90;;;11.01;91.87;101826.41;5147679;28;20411;-73
2022/03/17 06:28:18;;;;;;;40.30;15.63;;;10.90;99.90;;;10.96;92.84;101834.03;5159339;28;20050;-71
2022/03/17 06:30:51;;;;;;;30.55;12.70;;;10.90;99.90;;;10.96;93.60;101836.66;5166987;28;20050;-72
2022/03/17 06:33:23;;;;;;;27.75;11.15;;;10.90;99.90;;;10.92;94.81;101845.13;5166275;28;20085;-71
2022/03/17 06:35:55;;;;;;;27.02;11.05;;;10.90;99.90;;;10.90;96.28;101841.56;5166917;28;20078;-72
2022/03/17 06:38:27;;;;;;;28.35;11.55;;;10.90;99.90;;;10.85;97.72;101853.47;5167242;28;20400;-72
2022/03/17 06:40:59;;;;;;;26.92;10.20;;;10.90;99.90;;;10.77;98.59;101860.00;5166829;28;20073;-72
2022/03/17 06:43:32;;;;;;;26.02;10.23;;;10.80;99.90;;;10.77;98.43;101873.06;5168825;28;20206;-71
2022/03/17 06:46:04;;;;;;;23.60;9.85;;;10.80;99.90;;;10.73;98.86;101884.13;5166587;28;20051;-71
2022/03/17 06:48:36;;;;;;;24.75;10.18;;;10.80;99.90;;;10.71;99.38;101893.59;5166684;28;20061;-72
2022/03/17 06:51:09;;;;;;;23.13;9.85;;;10.70;99.90;;;10.72;99.63;101892.78;5166750;28;20051;-72
2022/03/17 06:53:41;;;;;;;29.35;11.35;;;10.70;99.90;;;10.66;100.00;101902.91;5167004;28;20053;-72
2022/03/17 06:56:13;;;;;;;26.65;10.57;;;10.70;99.90;;;10.55;100.00;101911.03;5166593;28;20073;-72
2022/03/17 06:58:46;;;;;;;19.52;9.27;;;10.60;99.90;;;10.48;100.00;101914.16;5166371;28;20069;-69
2022/03/17 07:01:18;;;;;;;25.10;10.32;;;10.60;99.90;;;10.42;100.00;101918.13;5166696;28;20056;-68
2022/03/17 07:03:50;;;;;;;33.45;11.55;;;10.50;99.90;;;10.37;100.00;101919.59;5166177;28;20077;-70
2022/03/17 07:06:22;;;;;;;26.60;10.30;;;10.50;99.90;;;10.34;100.00;101930.78;5166462;28;20487;-67
2022/03/17 07:08:54;;;;;;;35.58;13.02;;;10.50;99.90;;;10.31;100.00;101933.22;5166419;28;20053;-69
2022/03/17 07:11:26;;;;;;;27.48;10.70;;;10.40;99.90;;;10.31;100.00;101931.50;5166449;28;20053;-70
2022/03/17 07:13:59;;;;;;;34.40;12.70;;;10.40;99.90;;;10.30;100.00;101944.44;5166419;28;20135;-68
2022/03/17 07:16:31;;;;;;;26.60;11.68;;;10.40;99.90;;;10.26;100.00;101948.59;5166370;28;20061;-69
2022/03/17 07:19:03;;;;;;;33.75;13.95;;;10.30;99.90;;;10.28;100.00;101964.31;5166190;28;20054;-69
2022/03/17 07:21:35;;;;;;;39.45;14.40;;;10.40;99.90;;;10.21;100.00;101970.88;5166195;28;20058;-69
2022/03/17 07:24:09;;;;;;;34.15;12.95;;;10.30;99.90;;;10.13;100.00;101976.47;5166358;28;20085;-70
2022/03/17 07:26:41;;;;;;;34.53;13.82;;;10.30;99.90;;;10.07;100.00;101983.13;5165999;28;20140;-69
2022/03/17 07:29:14;;;;;;;38.70;12.98;;;10.20;99.90;;;10.02;100.00;101984.59;5165762;28;20059;-69
2022/03/17 07:31:46;;;;;;;21.15;8.60;;;10.20;99.90;;;9.99;100.00;101991.34;5165938;28;20132;-68
2022/03/17 07:34:18;;;;;;;33.42;12.25;;;10.10;99.90;;;9.92;100.00;101992.72;5165965;28;20049;-70
2022/03/17 07:36:51;;;;;;;26.92;11.13;;;10.10;99.90;;;9.82;100.00;102006.00;5165763;28;20050;-68
2022/03/17 07:39:23;;;;;;;30.67;11.02;;;10.00;99.90;;;9.81;100.00;102006.81;5165848;28;20487;-68
2022/03/17 07:41:55;;;;;;;30.25;10.70;;;10.00;99.90;;;9.83;100.00;102018.22;5164878;28;20052;-69
2022/03/17 07:44:28;;;;;;;20.63;8.85;;;10.00;99.90;;;9.88;100.00;102027.19;5164008;28;20121;-69
2022/03/17 07:47:00;;;;;;;21.95;9.10;;;10.00;99.90;;;9.84;100.00;102030.44;5165123;28;20046;-68
2022/03/17 07:49:32;;;;;;;21.83;8.90;;;10.00;99.90;;;9.75;100.00;102028.19;5165843;28;20166;-74
2022/03/17 07:52:06;;;;;;;23.00;8.88;;;9.90;99.90;;;9.78;100.00;102035.31;5164550;28;20046;-71
2022/03/17 07:54:38;;;;;;;20.83;9.07;;;9.90;99.90;;;9.79;100.00;102047.53;5165145;28;20081;-71
2022/03/17 07:57:10;;;;;;;21.92;8.43;;;9.90;99.90;;;9.78;100.00;102045.72;5165398;28;20079;-70
2022/03/17 07:59:44;;;;;;;22.88;8.25;;;9.90;99.90;;;9.76;99.93;102062.94;5165488;28;20136;-71
2022/03/17 08:02:17;;;;;;;23.92;8.55;;;9.90;99.90;;;9.77;99.75;102062.13;5164565;28;20042;-72
2022/03/17 08:04:50;;;;;;;20.23;8.75;;;9.90;99.90;;;9.74;99.61;102075.00;5164365;28;20043;-70
2022/03/17 08:07:23;;;;;;;20.30;8.88;;;9.80;99.90;;;9.76;99.53;102078.56;5161773;28;20451;-71
2022/03/17 08:09:57;;;;;;;19.02;8.63;;;9.80;99.90;;;9.76;99.34;102075.97;5154662;28;20388;-71
2022/03/17 08:12:31;;;;;;;21.77;7.68;;;9.80;99.90;;;9.74;98.91;102080.19;5159369;28;20507;-72
2022/03/17 08:15:06;;;;;;;20.38;7.97;;;9.80;99.90;;;9.74;98.32;102091.50;5164411;28;20050;-71
2022/03/17 08:17:38;;;;;;;16.30;6.65;;;9.80;99.90;;;9.75;98.17;102084.59;5164032;28;20049;-72
2022/03/17 08:20:11;;;;;;;13.13;4.68;;;9.80;99.90;;;10.29;98.16;102092.09;5158448;28;20154;-61
2022/03/17 08:22:43;;;;;;;12.55;5.40;;;10.20;99.90;;;11.47;90.16;102093.25;5157870;28;20069;-64
2022/03/17 08:25:15;;;;;;;10.07;5.05;;;11.20;99.90;;;12.42;83.37;102103.28;5163098;28;20050;-65
2022/03/17 08:27:50;;;;;;;13.60;5.88;;;12.30;99.90;;;12.53;79.39;102109.91;5163552;28;20064;-72
2022/03/17 08:30:23;;;;;;;14.13;6.13;;;12.60;99.90;;;12.11;79.98;102107.00;5164888;28;20140;-72
2022/03/17 08:32:56;;;;;;;12.93;5.45;;;12.50;99.90;;;11.72;80.72;102110.19;5164645;28;20050;-72
2022/03/17 08:35:28;;;;;;;10.40;4.88;;;12.20;99.90;;;11.38;81.75;102126.75;5164819;28;20476;-72
2022/03/17 08:38:00;;;;;;;12.57;5.00;;;11.80;99.90;;;11.13;82.18;102124.53;5164921;28;20050;-72
2022/03/17 08:40:33;;;;;;;12.10;5.20;;;11.40;99.90;;;10.89;82.82;102137.19;5164435;28;20380;-72
2022/03/17 08:43:05;;;;;;;9.32;4.65;;;11.20;99.90;;;10.67;82.78;102144.59;5164909;28;20086;-72
2022/03/17 08:51:19;;;;;;;13.25;5.97;;;10.50;99.90;;;10.15;85.05;102162.47;5157240;28;20054;-73
2022/03/17 08:53:52;;;;;;;15.02;6.22;;;10.40;99.90;;;10.10;85.57;102163.91;5156085;28;20053;-71
2022/03/17 08:56:24;;;;;;;13.95;6.25;;;10.30;99.90;;;10.06;85.62;102168.94;5163445;28;20050;-72
2022/03/17 08:58:56;;;;;;;11.35;5.65;;;10.30;99.90;;;10.03;86.21;102180.88;5146389;28;20053;-72
2022/03/17 09:01:29;;;;;;;17.40;6.97;;;10.20;99.90;;;10.04;86.28;102186.19;5154682;28;20057;-73
2022/03/17 09:04:01;;;;;;;9.65;3.95;;;10.20;99.90;;;10.28;89.46;102183.25;5163744;28;20517;-64
2022/03/17 09:06:35;;;;;;;12.68;4.88;;;10.20;99.90;;;10.80;87.55;102196.66;5164685;28;20057;-71
2022/03/17 09:09:07;;;;;;;14.98;6.65;;;10.80;99.90;;;11.08;82.90;102200.00;5161419;28;20050;-73
2022/03/17 09:11:40;;;;;;;9.32;3.75;;;11.10;99.90;;;11.35;81.52;102202.31;5158360;28;20051;-73
2022/03/17 09:14:13;;;;;;;8.48;3.97;;;11.40;99.90;;;11.69;79.63;102207.59;5152895;28;20110;-74
2022/03/17 09:16:47;;;;;;;5.28;3.53;;;11.80;99.90;;;12.07;76.22;102206.13;5153180;28;20046;-73
2022/03/17 09:19:19;;;;;;;6.50;3.30;;;12.20;99.90;;;11.78;72.26;102220.25;5163782;28;20061;-72
2022/03/17 09:21:52;;;;;;;5.88;3.10;;;12.10;99.90;;;11.37;73.13;102216.34;5163997;28;20104;-72
2022/03/17 09:24:24;;;;;;;5.00;3.53;;;11.80;99.90;;;11.05;73.57;102233.72;5163353;28;20479;-72
2022/03/17 09:26:56;;;;;;;5.57;3.03;;;11.50;99.90;;;10.77;74.25;102231.28;5162055;28;20491;-72
2022/03/17 09:29:29;;;;;;;7.47;3.33;;;11.20;99.90;;;10.59;75.30;102236.34;5164010;28;20479;-73
2022/03/17 09:32:03;;;;;;;5.47;2.72;;;11.00;99.90;;;10.51;75.93;102242.84;5163732;28;20054;-73
2022/03/17 09:34:36;;;;;;;6.28;3.35;;;10.70;99.90;;;10.40;76.45;102243.91;5163583;28;20050;-72
2022/03/17 09:37:08;;;;;;;7.30;3.67;;;10.60;99.90;;;10.36;76.84;102257.56;5143290;28;20047;-73
2022/03/17 09:39:46;;;;;;;6.80;3.45;;;10.60;99.90;;;10.33;77.28;102257.41;5143956;28;20463;-73
2022/03/17 09:42:20;;;;;;;5.43;2.95;;;10.50;99.90;;;10.35;77.39;102247.06;5148280;28;20105;-73
2022/03/17 09:44:53;;;;;;;6.53;2.88;;;10.50;99.90;;;10.30;77.90;102247.72;5149060;28;20046;-73
2022/03/17 09:47:31;;;;;;;6.32;3.80;;;10.40;99.90;;;10.35;78.21;102250.56;5142985;28;20137;-73
2022/03/17 09:50:06;;;;;;;9.93;3.38;;;10.40;99.90;;;10.36;77.73;102257.56;5149079;28;20051;-73
2022/03/17 09:52:39;;;;;;;9.30;4.70;;;10.40;99.90;;;10.27;78.64;102272.69;5142984;28;20051;-73
2022/03/17 09:55:13;;;;;;;7.05;3.25;;;10.40;99.90;;;10.20;78.86;102270.47;5143266;28;20050;-74
2022/03/17 09:57:45;;;;;;;9.70;3.08;;;10.30;99.90;;;10.75;84.11;102278.94;5166669;28;20124;-78
2022/03/17 10:00:17;;;;;;;7.35;3.08;;;10.70;99.90;;;11.29;79.38;102283.81;5166722;28;20050;-73
2022/03/17 10:02:50;;;;;;;6.80;3.42;;;11.30;99.90;;;11.19;76.76;102288.41;5160576;28;20057;-73
2022/03/17 10:05:23;;;;;;;9.23;3.70;;;11.40;99.90;;;10.95;76.50;102293.13;5162836;28;20053;-73
2022/03/17 10:07:55;;;;;;;9.35;4.00;;;11.30;99.90;;;10.77;77.24;102290.41;5163135;28;20062;-74
2022/03/17 10:10:37;;;;;;;6.03;3.05;;;11.10;99.90;;;10.60;77.50;102294.63;5167141;28;20050;-73
2022/03/17 10:13:11;;;;;;;;;;;10.90;99.90;;;11.00;79.79;102303.03;5167690;28;20042;-73
2022/03/17 10:15:46;;;;;;;6.55;2.42;;;11.20;99.90;;;11.02;77.60;102304.03;5166805;28;19922;-74
2022/03/17 10:18:25;;;;;;;4.55;2.25;;;11.20;99.90;;;10.90;76.69;102305.03;5166467;28;20496;-74
2022/03/17 10:21:07;;;;;;;4.80;2.50;;;11.10;99.90;;;10.82;76.34;102318.56;5165119;28;20046;-73
2022/03/17 10:23:46;;;;;;;7.38;2.95;;;11.00;99.90;;;10.79;76.46;102322.69;5162213;28;20046;-74
2022/03/17 10:26:40;;;;;;;7.22;2.25;;;10.90;99.90;;;10.72;76.64;102323.13;5153592;28;20073;-73
2022/03/17 10:29:16;;;;;;;4.78;1.65;;;10.80;99.90;;;10.77;78.07;102325.19;5145776;28;20057;-69
2022/03/17 10:32:01;;;;;;;10.52;2.60;;;10.80;99.90;;;11.31;77.54;102330.88;5146873;28;20403;-68
2022/03/17 10:34:56;;;;;;;6.03;2.55;;;11.20;99.90;;;11.72;75.63;102337.47;5147230;28;20398;-70